sensor_id;sensor_type;location;lat;lon;timestamp;P1;durP1;ratioP1;P2;durP2;ratioP2
7213;SDS011;3648;50.614;13.830;2023-07-30T00:00:04;2.33;;;1.73;;
7213;SDS011;3648;50.614;13.830;2023-07-30T00:02:32;2.83;;;2.10;;
7213;SDS011;3648;50.614;13.830;2023-07-30T00:04:59;2.67;;;1.90;;
7213;SDS011;3648;50.614;13.830;2023-07-30T00:07:26;2.20;;;1.73;;
7213;SDS011;3648;50.614;13.830;2023-07-30T00:09:53;6.00;;;2.20;;
7213;SDS011;3648;50.614;13.830;2023-07-30T00:12:21;2.77;;;1.90;;
7213;SDS011;3648;50.614;13.830;2023-07-30T00:14:48;2.97;;;1.93;;
7213;SDS011;3648;50.614;13.830;2023-07-30T00:17:15;3.47;;;1.70;;
7213;SDS011;3648;50.614;13.830;2023-07-30T00:19:41;2.20;;;1.70;;
7213;SDS011;3648;50.614;13.830;2023-07-30T00:22:08;2.43;;;1.90;;
7213;SDS011;3648;50.614;13.830;2023-07-30T00:24:35;3.20;;;1.67;;
7213;SDS011;3648;50.614;13.830;2023-07-30T00:27:03;2.70;;;1.83;;
7213;SDS011;3648;50.614;13.830;2023-07-30T00:29:31;2.90;;;2.00;;
7213;SDS011;3648;50.614;13.830;2023-07-30T00:31:58;2.07;;;1.70;;
7213;SDS011;3648;50.614;13.830;2023-07-30T00:34:25;3.93;;;2.00;;
7213;SDS011;3648;50.614;13.830;2023-07-30T00:36:52;2.07;;;1.83;;
7213;SDS011;3648;50.614;13.830;2023-07-30T00:39:19;2.67;;;1.93;;
7213;SDS011;3648;50.614;13.830;2023-07-30T00:41:46;4.17;;;1.90;;
7213;SDS011;3648;50.614;13.830;2023-07-30T00:44:13;2.57;;;2.00;;
7213;SDS011;3648;50.614;13.830;2023-07-30T00:46:41;3.40;;;2.07;;
7213;SDS011;3648;50.614;13.830;2023-07-30T00:49:08;4.00;;;1.83;;
7213;SDS011;3648;50.614;13.830;2023-07-30T00:51:35;2.40;;;1.77;;
7213;SDS011;3648;50.614;13.830;2023-07-30T00:54:03;2.40;;;2.20;;
7213;SDS011;3648;50.614;13.830;2023-07-30T00:56:30;2.97;;;2.63;;
7213;SDS011;3648;50.614;13.830;2023-07-30T00:58:57;4.20;;;2.50;;
7213;SDS011;3648;50.614;13.830;2023-07-30T01:01:24;4.57;;;2.67;;
7213;SDS011;3648;50.614;13.830;2023-07-30T01:03:52;4.50;;;3.37;;
7213;SDS011;3648;50.614;13.830;2023-07-30T01:06:20;9.10;;;4.53;;
7213;SDS011;3648;50.614;13.830;2023-07-30T01:08:47;7.33;;;4.30;;
7213;SDS011;3648;50.614;13.830;2023-07-30T01:11:14;5.50;;;3.70;;
7213;SDS011;3648;50.614;13.830;2023-07-30T01:13:42;5.00;;;2.83;;
7213;SDS011;3648;50.614;13.830;2023-07-30T01:16:09;4.23;;;2.70;;
7213;SDS011;3648;50.614;13.830;2023-07-30T01:18:37;2.87;;;2.30;;
7213;SDS011;3648;50.614;13.830;2023-07-30T01:21:05;2.80;;;2.40;;
7213;SDS011;3648;50.614;13.830;2023-07-30T01:23:32;3.23;;;2.00;;
7213;SDS011;3648;50.614;13.830;2023-07-30T01:26:01;2.73;;;2.10;;
7213;SDS011;3648;50.614;13.830;2023-07-30T01:28:32;3.37;;;2.20;;
7213;SDS011;3648;50.614;13.830;2023-07-30T01:31:03;2.20;;;1.70;;
7213;SDS011;3648;50.614;13.830;2023-07-30T01:33:32;5.00;;;1.80;;
7213;SDS011;3648;50.614;13.830;2023-07-30T01:36:00;2.70;;;2.20;;
7213;SDS011;3648;50.614;13.830;2023-07-30T01:38:29;2.43;;;1.80;;
7213;SDS011;3648;50.614;13.830;2023-07-30T01:40:56;1.93;;;1.80;;
7213;SDS011;3648;50.614;13.830;2023-07-30T01:43:23;3.93;;;2.10;;
7213;SDS011;3648;50.614;13.830;2023-07-30T01:45:50;3.00;;;2.37;;
7213;SDS011;3648;50.614;13.830;2023-07-30T01:48:17;3.07;;;2.40;;
7213;SDS011;3648;50.614;13.830;2023-07-30T01:50:44;3.80;;;2.33;;
7213;SDS011;3648;50.614;13.830;2023-07-30T01:53:13;4.33;;;2.10;;
7213;SDS011;3648;50.614;13.830;2023-07-30T01:55:42;3.67;;;2.33;;
7213;SDS011;3648;50.614;13.830;2023-07-30T01:58:11;2.57;;;1.87;;
7213;SDS011;3648;50.614;13.830;2023-07-30T02:00:38;3.37;;;2.13;;
7213;SDS011;3648;50.614;13.830;2023-07-30T02:03:05;2.23;;;2.03;;
7213;SDS011;3648;50.614;13.830;2023-07-30T02:05:32;4.20;;;2.20;;
7213;SDS011;3648;50.614;13.830;2023-07-30T02:07:59;3.13;;;1.73;;
7213;SDS011;3648;50.614;13.830;2023-07-30T02:10:26;2.80;;;2.03;;
7213;SDS011;3648;50.614;13.830;2023-07-30T02:12:54;3.10;;;2.23;;
7213;SDS011;3648;50.614;13.830;2023-07-30T02:15:21;3.10;;;2.27;;
7213;SDS011;3648;50.614;13.830;2023-07-30T02:17:48;2.60;;;1.77;;
7213;SDS011;3648;50.614;13.830;2023-07-30T02:20:15;3.50;;;2.00;;
7213;SDS011;3648;50.614;13.830;2023-07-30T02:22:42;2.97;;;2.03;;
7213;SDS011;3648;50.614;13.830;2023-07-30T02:25:08;2.57;;;2.17;;
7213;SDS011;3648;50.614;13.830;2023-07-30T02:27:35;4.23;;;3.07;;
7213;SDS011;3648;50.614;13.830;2023-07-30T02:30:04;4.30;;;3.63;;
7213;SDS011;3648;50.614;13.830;2023-07-30T02:32:32;9.67;;;4.83;;
7213;SDS011;3648;50.614;13.830;2023-07-30T02:34:59;6.10;;;5.17;;
7213;SDS011;3648;50.614;13.830;2023-07-30T02:37:26;14.90;;;6.47;;
7213;SDS011;3648;50.614;13.830;2023-07-30T02:39:53;18.37;;;6.50;;
7213;SDS011;3648;50.614;13.830;2023-07-30T02:42:20;6.53;;;5.80;;
7213;SDS011;3648;50.614;13.830;2023-07-30T02:44:46;13.53;;;7.33;;
7213;SDS011;3648;50.614;13.830;2023-07-30T02:47:15;8.13;;;6.67;;
7213;SDS011;3648;50.614;13.830;2023-07-30T02:49:42;9.87;;;6.27;;
7213;SDS011;3648;50.614;13.830;2023-07-30T02:52:09;6.20;;;5.50;;
7213;SDS011;3648;50.614;13.830;2023-07-30T02:54:36;6.10;;;5.30;;
7213;SDS011;3648;50.614;13.830;2023-07-30T02:57:03;6.60;;;5.30;;
7213;SDS011;3648;50.614;13.830;2023-07-30T02:59:30;5.83;;;5.23;;
7213;SDS011;3648;50.614;13.830;2023-07-30T03:02:00;5.13;;;4.30;;
7213;SDS011;3648;50.614;13.830;2023-07-30T03:04:31;4.80;;;4.33;;
7213;SDS011;3648;50.614;13.830;2023-07-30T03:06:58;4.87;;;3.90;;
7213;SDS011;3648;50.614;13.830;2023-07-30T03:09:25;4.20;;;3.80;;
7213;SDS011;3648;50.614;13.830;2023-07-30T03:11:52;4.43;;;3.53;;
7213;SDS011;3648;50.614;13.830;2023-07-30T03:14:20;3.43;;;3.13;;
7213;SDS011;3648;50.614;13.830;2023-07-30T03:16:47;3.33;;;2.83;;
7213;SDS011;3648;50.614;13.830;2023-07-30T03:19:14;3.87;;;3.07;;
7213;SDS011;3648;50.614;13.830;2023-07-30T03:21:42;4.30;;;3.30;;
7213;SDS011;3648;50.614;13.830;2023-07-30T03:24:09;3.33;;;2.60;;
7213;SDS011;3648;50.614;13.830;2023-07-30T03:26:36;4.17;;;3.10;;
7213;SDS011;3648;50.614;13.830;2023-07-30T03:29:03;4.00;;;3.10;;
7213;SDS011;3648;50.614;13.830;2023-07-30T03:31:30;3.40;;;3.10;;
7213;SDS011;3648;50.614;13.830;2023-07-30T03:33:58;3.60;;;2.97;;
7213;SDS011;3648;50.614;13.830;2023-07-30T03:36:25;3.83;;;3.17;;
7213;SDS011;3648;50.614;13.830;2023-07-30T03:38:54;3.80;;;3.40;;
7213;SDS011;3648;50.614;13.830;2023-07-30T03:41:21;4.83;;;3.97;;
7213;SDS011;3648;50.614;13.830;2023-07-30T03:43:47;3.50;;;3.20;;
7213;SDS011;3648;50.614;13.830;2023-07-30T03:46:15;4.50;;;3.03;;
7213;SDS011;3648;50.614;13.830;2023-07-30T03:48:42;4.20;;;3.17;;
7213;SDS011;3648;50.614;13.830;2023-07-30T03:51:09;4.13;;;3.30;;
7213;SDS011;3648;50.614;13.830;2023-07-30T03:53:36;3.20;;;2.90;;
7213;SDS011;3648;50.614;13.830;2023-07-30T03:56:05;3.53;;;3.23;;
7213;SDS011;3648;50.614;13.830;2023-07-30T03:58:32;3.83;;;2.87;;
7213;SDS011;3648;50.614;13.830;2023-07-30T04:00:59;3.47;;;3.00;;
7213;SDS011;3648;50.614;13.830;2023-07-30T04:03:26;3.50;;;3.20;;
7213;SDS011;3648;50.614;13.830;2023-07-30T04:05:53;3.97;;;3.23;;
7213;SDS011;3648;50.614;13.830;2023-07-30T04:08:20;6.13;;;3.53;;
7213;SDS011;3648;50.614;13.830;2023-07-30T04:10:47;3.47;;;3.17;;
7213;SDS011;3648;50.614;13.830;2023-07-30T04:13:15;4.77;;;3.50;;
7213;SDS011;3648;50.614;13.830;2023-07-30T04:15:43;4.13;;;3.47;;
7213;SDS011;3648;50.614;13.830;2023-07-30T04:18:10;3.80;;;3.40;;
7213;SDS011;3648;50.614;13.830;2023-07-30T04:20:37;5.23;;;4.40;;
7213;SDS011;3648;50.614;13.830;2023-07-30T04:23:04;4.43;;;4.03;;
7213;SDS011;3648;50.614;13.830;2023-07-30T04:25:31;5.70;;;4.00;;
7213;SDS011;3648;50.614;13.830;2023-07-30T04:27:58;4.17;;;3.73;;
7213;SDS011;3648;50.614;13.830;2023-07-30T04:30:26;6.13;;;4.87;;
7213;SDS011;3648;50.614;13.830;2023-07-30T04:32:53;6.73;;;4.50;;
7213;SDS011;3648;50.614;13.830;2023-07-30T04:35:20;4.50;;;4.07;;
7213;SDS011;3648;50.614;13.830;2023-07-30T04:37:47;5.07;;;4.17;;
7213;SDS011;3648;50.614;13.830;2023-07-30T04:40:14;5.10;;;4.37;;
7213;SDS011;3648;50.614;13.830;2023-07-30T04:42:41;4.93;;;4.40;;
7213;SDS011;3648;50.614;13.830;2023-07-30T04:45:08;5.47;;;4.43;;
7213;SDS011;3648;50.614;13.830;2023-07-30T04:47:37;5.17;;;4.67;;
7213;SDS011;3648;50.614;13.830;2023-07-30T04:50:04;4.77;;;4.27;;
7213;SDS011;3648;50.614;13.830;2023-07-30T04:52:31;4.57;;;4.17;;
7213;SDS011;3648;50.614;13.830;2023-07-30T04:54:58;6.53;;;4.43;;
7213;SDS011;3648;50.614;13.830;2023-07-30T04:57:25;5.70;;;4.80;;
7213;SDS011;3648;50.614;13.830;2023-07-30T04:59:52;4.60;;;4.00;;
7213;SDS011;3648;50.614;13.830;2023-07-30T05:02:19;5.50;;;4.67;;
7213;SDS011;3648;50.614;13.830;2023-07-30T05:04:48;5.30;;;4.30;;
7213;SDS011;3648;50.614;13.830;2023-07-30T05:07:15;5.47;;;4.83;;
7213;SDS011;3648;50.614;13.830;2023-07-30T05:09:42;4.30;;;3.90;;
7213;SDS011;3648;50.614;13.830;2023-07-30T05:12:09;5.40;;;4.10;;
7213;SDS011;3648;50.614;13.830;2023-07-30T05:14:36;4.50;;;4.10;;
7213;SDS011;3648;50.614;13.830;2023-07-30T05:17:03;4.63;;;4.07;;
7213;SDS011;3648;50.614;13.830;2023-07-30T05:19:31;4.77;;;4.03;;
7213;SDS011;3648;50.614;13.830;2023-07-30T05:21:59;5.67;;;4.63;;
7213;SDS011;3648;50.614;13.830;2023-07-30T05:24:27;5.03;;;4.20;;
7213;SDS011;3648;50.614;13.830;2023-07-30T05:26:54;5.43;;;3.97;;
7213;SDS011;3648;50.614;13.830;2023-07-30T05:29:21;4.73;;;4.30;;
7213;SDS011;3648;50.614;13.830;2023-07-30T05:31:48;5.10;;;3.87;;
7213;SDS011;3648;50.614;13.830;2023-07-30T05:34:15;3.93;;;3.53;;
7213;SDS011;3648;50.614;13.830;2023-07-30T05:36:42;4.23;;;3.60;;
7213;SDS011;3648;50.614;13.830;2023-07-30T05:39:10;4.00;;;3.60;;
7213;SDS011;3648;50.614;13.830;2023-07-30T05:41:37;3.90;;;3.50;;
7213;SDS011;3648;50.614;13.830;2023-07-30T05:44:04;3.87;;;3.47;;
7213;SDS011;3648;50.614;13.830;2023-07-30T05:46:31;4.73;;;4.20;;
7213;SDS011;3648;50.614;13.830;2023-07-30T05:48:58;31.50;;;6.03;;
7213;SDS011;3648;50.614;13.830;2023-07-30T05:51:26;11.40;;;4.93;;
7213;SDS011;3648;50.614;13.830;2023-07-30T05:53:53;7.77;;;4.40;;
7213;SDS011;3648;50.614;13.830;2023-07-30T05:56:21;4.73;;;3.67;;
7213;SDS011;3648;50.614;13.830;2023-07-30T05:58:48;5.80;;;4.20;;
7213;SDS011;3648;50.614;13.830;2023-07-30T06:01:15;6.27;;;4.13;;
7213;SDS011;3648;50.614;13.830;2023-07-30T06:03:43;4.13;;;3.57;;
7213;SDS011;3648;50.614;13.830;2023-07-30T06:06:10;4.33;;;3.87;;
7213;SDS011;3648;50.614;13.830;2023-07-30T06:08:37;5.00;;;4.00;;
7213;SDS011;3648;50.614;13.830;2023-07-30T06:11:04;4.47;;;4.07;;
7213;SDS011;3648;50.614;13.830;2023-07-30T06:13:32;4.93;;;3.80;;
7213;SDS011;3648;50.614;13.830;2023-07-30T06:15:59;4.33;;;3.53;;
7213;SDS011;3648;50.614;13.830;2023-07-30T06:18:26;3.87;;;3.23;;
7213;SDS011;3648;50.614;13.830;2023-07-30T06:20:53;4.57;;;3.70;;
7213;SDS011;3648;50.614;13.830;2023-07-30T06:23:20;4.47;;;3.70;;
7213;SDS011;3648;50.614;13.830;2023-07-30T06:25:47;3.93;;;2.87;;
7213;SDS011;3648;50.614;13.830;2023-07-30T06:28:14;3.00;;;2.70;;
7213;SDS011;3648;50.614;13.830;2023-07-30T06:30:43;2.67;;;2.30;;
7213;SDS011;3648;50.614;13.830;2023-07-30T06:33:10;2.60;;;2.40;;
7213;SDS011;3648;50.614;13.830;2023-07-30T06:35:37;2.73;;;2.33;;
7213;SDS011;3648;50.614;13.830;2023-07-30T06:38:05;3.17;;;2.87;;
7213;SDS011;3648;50.614;13.830;2023-07-30T06:40:32;3.33;;;2.40;;
7213;SDS011;3648;50.614;13.830;2023-07-30T06:42:59;2.93;;;2.43;;
7213;SDS011;3648;50.614;13.830;2023-07-30T06:45:27;16.00;;;3.90;;
7213;SDS011;3648;50.614;13.830;2023-07-30T06:47:55;3.10;;;2.07;;
7213;SDS011;3648;50.614;13.830;2023-07-30T06:50:23;4.30;;;2.20;;
7213;SDS011;3648;50.614;13.830;2023-07-30T06:52:50;2.77;;;2.03;;
7213;SDS011;3648;50.614;13.830;2023-07-30T06:55:17;4.17;;;3.47;;
7213;SDS011;3648;50.614;13.830;2023-07-30T06:57:44;7.70;;;4.53;;
7213;SDS011;3648;50.614;13.830;2023-07-30T07:00:12;4.43;;;4.03;;
7213;SDS011;3648;50.614;13.830;2023-07-30T07:02:44;5.50;;;4.77;;
7213;SDS011;3648;50.614;13.830;2023-07-30T07:05:12;5.83;;;4.83;;
7213;SDS011;3648;50.614;13.830;2023-07-30T07:07:40;6.07;;;5.47;;
7213;SDS011;3648;50.614;13.830;2023-07-30T07:10:07;6.63;;;5.93;;
7213;SDS011;3648;50.614;13.830;2023-07-30T07:12:35;6.73;;;4.77;;
7213;SDS011;3648;50.614;13.830;2023-07-30T07:15:03;4.67;;;3.80;;
7213;SDS011;3648;50.614;13.830;2023-07-30T07:17:31;6.60;;;3.50;;
7213;SDS011;3648;50.614;13.830;2023-07-30T07:19:58;3.73;;;3.43;;
7213;SDS011;3648;50.614;13.830;2023-07-30T07:22:27;3.90;;;3.30;;
7213;SDS011;3648;50.614;13.830;2023-07-30T07:24:54;4.00;;;3.60;;
7213;SDS011;3648;50.614;13.830;2023-07-30T07:27:21;5.20;;;4.20;;
7213;SDS011;3648;50.614;13.830;2023-07-30T07:29:49;4.17;;;3.77;;
7213;SDS011;3648;50.614;13.830;2023-07-30T07:32:16;4.27;;;3.53;;
7213;SDS011;3648;50.614;13.830;2023-07-30T07:34:45;4.37;;;3.97;;
7213;SDS011;3648;50.614;13.830;2023-07-30T07:37:13;4.00;;;3.53;;
7213;SDS011;3648;50.614;13.830;2023-07-30T07:39:43;4.10;;;3.50;;
7213;SDS011;3648;50.614;13.830;2023-07-30T07:42:10;3.83;;;3.53;;
7213;SDS011;3648;50.614;13.830;2023-07-30T07:44:37;6.50;;;3.77;;
7213;SDS011;3648;50.614;13.830;2023-07-30T07:47:04;4.33;;;3.80;;
7213;SDS011;3648;50.614;13.830;2023-07-30T07:49:31;4.90;;;4.00;;
7213;SDS011;3648;50.614;13.830;2023-07-30T07:51:58;4.03;;;3.63;;
7213;SDS011;3648;50.614;13.830;2023-07-30T07:54:25;7.90;;;4.20;;
7213;SDS011;3648;50.614;13.830;2023-07-30T07:56:54;4.27;;;3.60;;
7213;SDS011;3648;50.614;13.830;2023-07-30T07:59:21;5.67;;;4.27;;
7213;SDS011;3648;50.614;13.830;2023-07-30T08:01:48;9.60;;;4.60;;
7213;SDS011;3648;50.614;13.830;2023-07-30T08:04:15;4.80;;;4.17;;
7213;SDS011;3648;50.614;13.830;2023-07-30T08:06:42;5.77;;;4.80;;
7213;SDS011;3648;50.614;13.830;2023-07-30T08:09:09;6.73;;;5.30;;
7213;SDS011;3648;50.614;13.830;2023-07-30T08:11:37;6.40;;;5.40;;
7213;SDS011;3648;50.614;13.830;2023-07-30T08:14:05;9.17;;;5.73;;
7213;SDS011;3648;50.614;13.830;2023-07-30T08:16:32;16.87;;;6.27;;
7213;SDS011;3648;50.614;13.830;2023-07-30T08:19:00;7.23;;;6.03;;
7213;SDS011;3648;50.614;13.830;2023-07-30T08:21:27;6.70;;;5.83;;
7213;SDS011;3648;50.614;13.830;2023-07-30T08:23:54;9.37;;;7.33;;
7213;SDS011;3648;50.614;13.830;2023-07-30T08:26:21;9.93;;;7.73;;
7213;SDS011;3648;50.614;13.830;2023-07-30T08:28:48;11.67;;;7.97;;
7213;SDS011;3648;50.614;13.830;2023-07-30T08:31:16;11.33;;;8.60;;
7213;SDS011;3648;50.614;13.830;2023-07-30T08:33:43;11.17;;;8.33;;
7213;SDS011;3648;50.614;13.830;2023-07-30T08:36:10;9.73;;;8.73;;
7213;SDS011;3648;50.614;13.830;2023-07-30T08:38:37;10.63;;;8.40;;
7213;SDS011;3648;50.614;13.830;2023-07-30T08:41:04;11.00;;;8.27;;
7213;SDS011;3648;50.614;13.830;2023-07-30T08:43:31;10.40;;;9.30;;
7213;SDS011;3648;50.614;13.830;2023-07-30T08:45:59;9.13;;;8.10;;
7213;SDS011;3648;50.614;13.830;2023-07-30T08:48:28;8.60;;;7.20;;
7213;SDS011;3648;50.614;13.830;2023-07-30T08:50:56;8.37;;;7.40;;
7213;SDS011;3648;50.614;13.830;2023-07-30T08:53:24;9.33;;;6.70;;
7213;SDS011;3648;50.614;13.830;2023-07-30T08:55:52;9.97;;;8.17;;
7213;SDS011;3648;50.614;13.830;2023-07-30T08:58:21;8.90;;;6.93;;
7213;SDS011;3648;50.614;13.830;2023-07-30T09:00:49;8.80;;;7.47;;
7213;SDS011;3648;50.614;13.830;2023-07-30T09:03:17;7.93;;;7.03;;
7213;SDS011;3648;50.614;13.830;2023-07-30T09:05:48;7.97;;;7.17;;
7213;SDS011;3648;50.614;13.830;2023-07-30T09:08:15;11.17;;;7.30;;
7213;SDS011;3648;50.614;13.830;2023-07-30T09:10:44;8.50;;;7.20;;
7213;SDS011;3648;50.614;13.830;2023-07-30T09:13:11;6.60;;;5.73;;
7213;SDS011;3648;50.614;13.830;2023-07-30T09:15:47;6.90;;;6.20;;
7213;SDS011;3648;50.614;13.830;2023-07-30T09:18:16;6.83;;;6.07;;
7213;SDS011;3648;50.614;13.830;2023-07-30T09:20:44;7.77;;;6.40;;
7213;SDS011;3648;50.614;13.830;2023-07-30T09:23:12;8.10;;;6.47;;
7213;SDS011;3648;50.614;13.830;2023-07-30T09:25:39;5.53;;;5.03;;
7213;SDS011;3648;50.614;13.830;2023-07-30T09:28:06;8.03;;;5.40;;
7213;SDS011;3648;50.614;13.830;2023-07-30T09:30:33;6.10;;;5.43;;
7213;SDS011;3648;50.614;13.830;2023-07-30T09:33:00;6.43;;;5.13;;
7213;SDS011;3648;50.614;13.830;2023-07-30T09:35:28;5.80;;;5.07;;
7213;SDS011;3648;50.614;13.830;2023-07-30T09:37:59;5.70;;;4.77;;
7213;SDS011;3648;50.614;13.830;2023-07-30T09:40:32;5.23;;;4.73;;
7213;SDS011;3648;50.614;13.830;2023-07-30T09:43:01;6.07;;;4.83;;
7213;SDS011;3648;50.614;13.830;2023-07-30T09:45:32;5.30;;;4.50;;
7213;SDS011;3648;50.614;13.830;2023-07-30T09:47:59;5.43;;;4.93;;
7213;SDS011;3648;50.614;13.830;2023-07-30T09:50:29;5.27;;;4.63;;
7213;SDS011;3648;50.614;13.830;2023-07-30T09:52:57;6.77;;;5.90;;
7213;SDS011;3648;50.614;13.830;2023-07-30T09:55:26;5.77;;;5.27;;
7213;SDS011;3648;50.614;13.830;2023-07-30T09:57:55;6.47;;;5.57;;
7213;SDS011;3648;50.614;13.830;2023-07-30T10:00:23;5.37;;;4.87;;
7213;SDS011;3648;50.614;13.830;2023-07-30T10:02:50;6.90;;;4.80;;
7213;SDS011;3648;50.614;13.830;2023-07-30T10:05:19;5.77;;;4.87;;
7213;SDS011;3648;50.614;13.830;2023-07-30T10:07:51;5.07;;;4.63;;
7213;SDS011;3648;50.614;13.830;2023-07-30T10:10:22;5.43;;;4.93;;
7213;SDS011;3648;50.614;13.830;2023-07-30T10:12:51;5.40;;;4.70;;
7213;SDS011;3648;50.614;13.830;2023-07-30T10:15:21;4.80;;;4.27;;
7213;SDS011;3648;50.614;13.830;2023-07-30T10:17:48;4.70;;;4.10;;
7213;SDS011;3648;50.614;13.830;2023-07-30T10:20:20;4.97;;;4.30;;
7213;SDS011;3648;50.614;13.830;2023-07-30T10:22:52;4.97;;;4.00;;
7213;SDS011;3648;50.614;13.830;2023-07-30T10:25:20;4.83;;;4.10;;
7213;SDS011;3648;50.614;13.830;2023-07-30T10:27:49;5.53;;;4.20;;
7213;SDS011;3648;50.614;13.830;2023-07-30T10:30:19;4.30;;;3.80;;
7213;SDS011;3648;50.614;13.830;2023-07-30T10:33:00;8.10;;;4.30;;
7213;SDS011;3648;50.614;13.830;2023-07-30T10:35:35;4.07;;;3.67;;
7213;SDS011;3648;50.614;13.830;2023-07-30T10:38:13;6.87;;;4.03;;
7213;SDS011;3648;50.614;13.830;2023-07-30T10:40:41;4.97;;;3.50;;
7213;SDS011;3648;50.614;13.830;2023-07-30T10:43:15;3.80;;;3.30;;
7213;SDS011;3648;50.614;13.830;2023-07-30T10:45:50;3.73;;;3.40;;
7213;SDS011;3648;50.614;13.830;2023-07-30T10:48:18;4.47;;;3.23;;
7213;SDS011;3648;50.614;13.830;2023-07-30T10:50:45;3.00;;;2.70;;
7213;SDS011;3648;50.614;13.830;2023-07-30T10:53:14;2.73;;;1.90;;
7213;SDS011;3648;50.614;13.830;2023-07-30T10:55:43;2.90;;;2.30;;
7213;SDS011;3648;50.614;13.830;2023-07-30T10:58:12;2.23;;;2.03;;
7213;SDS011;3648;50.614;13.830;2023-07-30T11:00:41;2.97;;;2.50;;
7213;SDS011;3648;50.614;13.830;2023-07-30T11:03:10;2.40;;;2.20;;
7213;SDS011;3648;50.614;13.830;2023-07-30T11:05:37;4.03;;;2.57;;
7213;SDS011;3648;50.614;13.830;2023-07-30T11:08:05;3.83;;;2.50;;
7213;SDS011;3648;50.614;13.830;2023-07-30T11:10:34;2.70;;;2.33;;
7213;SDS011;3648;50.614;13.830;2023-07-30T11:13:09;2.67;;;2.47;;
7213;SDS011;3648;50.614;13.830;2023-07-30T11:15:40;3.27;;;2.40;;
7213;SDS011;3648;50.614;13.830;2023-07-30T11:18:09;2.77;;;2.57;;
7213;SDS011;3648;50.614;13.830;2023-07-30T11:20:37;4.57;;;2.67;;
7213;SDS011;3648;50.614;13.830;2023-07-30T11:23:17;2.53;;;2.33;;
7213;SDS011;3648;50.614;13.830;2023-07-30T11:25:46;3.03;;;2.30;;
7213;SDS011;3648;50.614;13.830;2023-07-30T11:28:15;2.50;;;2.27;;
7213;SDS011;3648;50.614;13.830;2023-07-30T11:30:53;3.50;;;2.80;;
7213;SDS011;3648;50.614;13.830;2023-07-30T11:33:23;6.80;;;3.30;;
7213;SDS011;3648;50.614;13.830;2023-07-30T11:35:50;3.40;;;3.10;;
7213;SDS011;3648;50.614;13.830;2023-07-30T11:38:17;5.23;;;4.17;;
7213;SDS011;3648;50.614;13.830;2023-07-30T11:40:45;4.67;;;4.27;;
7213;SDS011;3648;50.614;13.830;2023-07-30T11:43:13;5.33;;;4.83;;
7213;SDS011;3648;50.614;13.830;2023-07-30T11:45:40;5.10;;;4.57;;
7213;SDS011;3648;50.614;13.830;2023-07-30T11:48:08;5.50;;;4.57;;
7213;SDS011;3648;50.614;13.830;2023-07-30T11:50:47;7.30;;;4.77;;
7213;SDS011;3648;50.614;13.830;2023-07-30T11:53:15;7.30;;;5.27;;
7213;SDS011;3648;50.614;13.830;2023-07-30T11:55:43;6.83;;;5.90;;
7213;SDS011;3648;50.614;13.830;2023-07-30T11:58:11;13.33;;;5.73;;
7213;SDS011;3648;50.614;13.830;2023-07-30T12:00:39;4.77;;;4.37;;
7213;SDS011;3648;50.614;13.830;2023-07-30T12:03:10;4.67;;;4.17;;
7213;SDS011;3648;50.614;13.830;2023-07-30T12:05:38;4.40;;;4.00;;
7213;SDS011;3648;50.614;13.830;2023-07-30T12:08:16;5.53;;;3.63;;
7213;SDS011;3648;50.614;13.830;2023-07-30T12:10:44;3.83;;;3.27;;
7213;SDS011;3648;50.614;13.830;2023-07-30T12:13:18;6.57;;;3.10;;
7213;SDS011;3648;50.614;13.830;2023-07-30T12:15:50;3.83;;;3.07;;
7213;SDS011;3648;50.614;13.830;2023-07-30T12:18:17;3.87;;;3.50;;
7213;SDS011;3648;50.614;13.830;2023-07-30T12:20:44;4.17;;;3.03;;
7213;SDS011;3648;50.614;13.830;2023-07-30T12:23:13;3.20;;;2.90;;
7213;SDS011;3648;50.614;13.830;2023-07-30T12:25:40;2.83;;;2.63;;
7213;SDS011;3648;50.614;13.830;2023-07-30T12:28:07;3.73;;;2.50;;
7213;SDS011;3648;50.614;13.830;2023-07-30T12:30:34;2.33;;;2.13;;
7213;SDS011;3648;50.614;13.830;2023-07-30T12:33:02;3.23;;;2.77;;
7213;SDS011;3648;50.614;13.830;2023-07-30T12:35:29;3.40;;;2.43;;
7213;SDS011;3648;50.614;13.830;2023-07-30T12:37:57;2.70;;;2.50;;
7213;SDS011;3648;50.614;13.830;2023-07-30T12:40:27;2.27;;;2.07;;
7213;SDS011;3648;50.614;13.830;2023-07-30T12:42:59;2.70;;;2.03;;
7213;SDS011;3648;50.614;13.830;2023-07-30T12:45:29;2.57;;;2.00;;
7213;SDS011;3648;50.614;13.830;2023-07-30T12:47:58;2.53;;;2.33;;
7213;SDS011;3648;50.614;13.830;2023-07-30T12:50:27;2.93;;;2.63;;
7213;SDS011;3648;50.614;13.830;2023-07-30T12:52:54;2.07;;;1.83;;
7213;SDS011;3648;50.614;13.830;2023-07-30T12:55:22;2.47;;;2.13;;
7213;SDS011;3648;50.614;13.830;2023-07-30T12:57:53;2.17;;;1.93;;
7213;SDS011;3648;50.614;13.830;2023-07-30T13:00:20;2.20;;;2.00;;
7213;SDS011;3648;50.614;13.830;2023-07-30T13:02:48;4.50;;;2.43;;
7213;SDS011;3648;50.614;13.830;2023-07-30T13:05:17;2.20;;;2.00;;
7213;SDS011;3648;50.614;13.830;2023-07-30T13:07:46;2.33;;;2.13;;
7213;SDS011;3648;50.614;13.830;2023-07-30T13:10:16;2.13;;;1.93;;
7213;SDS011;3648;50.614;13.830;2023-07-30T13:12:44;3.17;;;2.27;;
7213;SDS011;3648;50.614;13.830;2023-07-30T13:15:26;2.30;;;2.10;;
7213;SDS011;3648;50.614;13.830;2023-07-30T13:17:54;2.40;;;2.20;;
7213;SDS011;3648;50.614;13.830;2023-07-30T13:20:22;2.37;;;2.17;;
7213;SDS011;3648;50.614;13.830;2023-07-30T13:22:51;4.80;;;2.60;;
7213;SDS011;3648;50.614;13.830;2023-07-30T13:25:18;5.27;;;3.07;;
7213;SDS011;3648;50.614;13.830;2023-07-30T13:27:46;2.90;;;2.20;;
7213;SDS011;3648;50.614;13.830;2023-07-30T13:30:13;2.83;;;2.20;;
7213;SDS011;3648;50.614;13.830;2023-07-30T13:32:42;2.33;;;2.00;;
7213;SDS011;3648;50.614;13.830;2023-07-30T13:35:10;3.97;;;2.10;;
7213;SDS011;3648;50.614;13.830;2023-07-30T13:37:37;2.07;;;1.90;;
7213;SDS011;3648;50.614;13.830;2023-07-30T13:40:04;3.57;;;1.90;;
7213;SDS011;3648;50.614;13.830;2023-07-30T13:42:32;1.63;;;1.53;;
7213;SDS011;3648;50.614;13.830;2023-07-30T13:44:59;1.97;;;1.77;;
7213;SDS011;3648;50.614;13.830;2023-07-30T13:47:26;2.00;;;1.80;;
7213;SDS011;3648;50.614;13.830;2023-07-30T13:49:54;2.73;;;1.80;;
7213;SDS011;3648;50.614;13.830;2023-07-30T13:52:21;1.80;;;1.67;;
7213;SDS011;3648;50.614;13.830;2023-07-30T13:54:48;1.70;;;1.60;;
7213;SDS011;3648;50.614;13.830;2023-07-30T13:57:21;1.80;;;1.70;;
7213;SDS011;3648;50.614;13.830;2023-07-30T13:59:49;2.80;;;1.43;;
7213;SDS011;3648;50.614;13.830;2023-07-30T14:02:16;1.23;;;1.13;;
7213;SDS011;3648;50.614;13.830;2023-07-30T14:04:43;2.33;;;1.67;;
7213;SDS011;3648;50.614;13.830;2023-07-30T14:07:11;1.57;;;1.40;;
7213;SDS011;3648;50.614;13.830;2023-07-30T14:09:38;1.67;;;1.40;;
7213;SDS011;3648;50.614;13.830;2023-07-30T14:12:06;1.77;;;1.43;;
7213;SDS011;3648;50.614;13.830;2023-07-30T14:14:33;1.60;;;1.50;;
7213;SDS011;3648;50.614;13.830;2023-07-30T14:17:01;2.17;;;1.47;;
7213;SDS011;3648;50.614;13.830;2023-07-30T14:19:32;2.33;;;1.63;;
7213;SDS011;3648;50.614;13.830;2023-07-30T14:21:59;3.67;;;1.67;;
7213;SDS011;3648;50.614;13.830;2023-07-30T14:24:28;1.50;;;1.40;;
7213;SDS011;3648;50.614;13.830;2023-07-30T14:26:55;1.90;;;1.70;;
7213;SDS011;3648;50.614;13.830;2023-07-30T14:29:23;1.40;;;1.30;;
7213;SDS011;3648;50.614;13.830;2023-07-30T14:31:50;4.13;;;1.77;;
7213;SDS011;3648;50.614;13.830;2023-07-30T14:34:18;1.60;;;1.50;;
7213;SDS011;3648;50.614;13.830;2023-07-30T14:36:45;1.50;;;1.20;;
7213;SDS011;3648;50.614;13.830;2023-07-30T14:39:12;2.70;;;1.40;;
7213;SDS011;3648;50.614;13.830;2023-07-30T14:41:40;2.10;;;1.30;;
7213;SDS011;3648;50.614;13.830;2023-07-30T14:44:07;5.77;;;1.63;;
7213;SDS011;3648;50.614;13.830;2023-07-30T14:46:34;7.43;;;1.70;;
7213;SDS011;3648;50.614;13.830;2023-07-30T14:49:01;4.53;;;1.80;;
7213;SDS011;3648;50.614;13.830;2023-07-30T14:51:29;2.83;;;1.50;;
7213;SDS011;3648;50.614;13.830;2023-07-30T14:53:56;1.70;;;1.30;;
7213;SDS011;3648;50.614;13.830;2023-07-30T14:56:23;2.30;;;1.63;;
7213;SDS011;3648;50.614;13.830;2023-07-30T14:58:51;2.33;;;1.60;;
7213;SDS011;3648;50.614;13.830;2023-07-30T15:01:18;4.10;;;1.63;;
7213;SDS011;3648;50.614;13.830;2023-07-30T15:03:45;2.20;;;1.50;;